createdAt,value
2023-03-23T15:57:57.674Z,2.25
2023-03-23T16:00:29.202Z,0.65
2023-03-23T16:03:02.237Z,1.73
2023-03-23T16:05:29.409Z,0.98
2023-03-23T16:07:56.586Z,0.93
2023-03-23T16:10:25.135Z,1.10
2023-03-23T16:12:52.859Z,1.60
2023-03-23T16:15:20.519Z,0.63
2023-03-23T16:17:47.848Z,1.42
2023-03-23T16:20:21.210Z,0.60
2023-03-23T16:22:49.667Z,0.70
2023-03-23T16:25:18.772Z,0.60
2023-03-23T16:27:51.769Z,0.70
2023-03-23T16:30:27.253Z,0.60
2023-03-23T16:32:57.061Z,1.85
2023-03-23T16:35:25.550Z,0.73
2023-03-23T16:38:08.277Z,0.88
2023-03-23T16:40:38.685Z,2.05
2023-03-23T16:43:08.897Z,1.20
2023-03-23T16:45:38.222Z,1.55
2023-03-23T16:48:06.386Z,1.15
2023-03-23T16:50:34.338Z,1.17
2023-03-23T16:53:01.983Z,1.52
2023-03-23T16:55:30.233Z,1.80
2023-03-23T16:58:13.221Z,0.80
2023-03-23T17:00:45.461Z,3.95
2023-03-23T17:03:13.503Z,1.75
2023-03-23T17:05:41.275Z,2.28
2023-03-23T17:08:08.396Z,0.73
2023-03-23T17:10:38.896Z,0.80
2023-03-23T17:13:06.008Z,1.13
2023-03-23T17:15:45.100Z,4.97
2023-03-23T17:18:14.616Z,1.80
2023-03-23T17:20:42.876Z,0.68
2023-03-23T17:23:09.973Z,1.45
2023-03-23T17:25:37.508Z,3.83
2023-03-23T17:28:06.803Z,1.58
2023-03-23T17:30:35.594Z,3.13
2023-03-23T17:33:02.866Z,3.88
2023-03-23T17:35:30.105Z,7.88
2023-03-23T17:37:57.315Z,4.55
2023-03-23T17:40:24.419Z,4.40
2023-03-23T17:42:51.344Z,4.65
2023-03-23T17:45:18.458Z,2.38
2023-03-23T17:47:45.456Z,3.35
2023-03-23T17:50:13.276Z,2.30
2023-03-23T17:52:41.870Z,3.13
2023-03-23T17:55:09.653Z,3.22
2023-03-23T17:57:36.807Z,2.17
2023-03-23T18:00:08.741Z,1.92
2023-03-23T18:02:38.841Z,0.93
2023-03-23T18:05:08.288Z,2.17
2023-03-23T18:07:35.610Z,1.17
2023-03-23T18:10:02.993Z,1.52
2023-03-23T18:12:30.047Z,1.58
2023-03-23T18:14:58.529Z,1.55
2023-03-23T18:17:26.520Z,2.45
2023-03-23T18:19:53.882Z,2.80
2023-03-23T18:22:21.572Z,1.00
2023-03-23T18:24:48.885Z,2.15
2023-03-23T18:27:15.984Z,1.77
2023-03-23T18:29:43.350Z,3.10
2023-03-23T18:32:10.412Z,3.40
2023-03-23T18:34:40.073Z,7.57
2023-03-23T18:37:07.038Z,1.40
2023-03-23T18:39:34.291Z,4.32
2023-03-23T18:42:01.464Z,4.80
2023-03-23T18:44:28.661Z,3.53
2023-03-23T18:46:55.673Z,3.58
2023-03-23T18:49:22.990Z,5.35
2023-03-23T18:51:50.002Z,5.80
2023-03-23T18:54:17.871Z,5.28
2023-03-23T18:56:44.918Z,5.25
2023-03-23T18:59:12.027Z,8.35
2023-03-23T19:01:39.463Z,4.47
2023-03-23T19:04:07.248Z,3.20
2023-03-23T19:06:35.902Z,3.85
2023-03-23T19:09:02.982Z,4.85
2023-03-23T19:11:30.262Z,5.90
2023-03-23T19:14:03.012Z,5.03
2023-03-23T19:16:33.195Z,3.80
2023-03-23T19:19:04.518Z,5.93
2023-03-23T19:21:32.620Z,4.85
2023-03-23T19:24:00.877Z,2.95
2023-03-23T19:26:38.190Z,4.65
2023-03-23T19:31:43.967Z,3.72
2023-03-23T19:34:12.493Z,1.67
2023-03-23T19:36:39.989Z,2.08
2023-03-23T19:39:07.889Z,4.72
2023-03-23T19:41:35.646Z,3.55
2023-03-23T19:44:04.161Z,2.30
2023-03-23T19:46:32.047Z,3.17
2023-03-23T19:48:59.982Z,3.97
2023-03-23T19:51:28.563Z,3.28
2023-03-23T19:53:57.350Z,2.50
2023-03-23T19:56:26.705Z,5.32
2023-03-23T19:58:53.727Z,3.95
2023-03-23T20:01:22.235Z,3.65
2023-03-23T20:03:51.700Z,2.83
2023-03-23T20:06:18.809Z,2.30
2023-03-23T20:08:48.772Z,3.20
2023-03-23T20:11:19.273Z,3.38
2023-03-23T20:13:49.091Z,2.65
2023-03-23T20:16:17.674Z,2.70
2023-03-23T20:18:47.718Z,2.20
2023-03-23T20:21:20.158Z,1.92
2023-03-23T20:23:47.598Z,1.85
2023-03-23T20:26:21.182Z,2.85
2023-03-23T20:28:48.700Z,2.60
2023-03-23T20:31:23.130Z,2.85
2023-03-23T20:34:02.298Z,3.13
2023-03-23T20:36:40.399Z,2.72
2023-03-23T20:39:10.835Z,1.00
2023-03-23T20:41:39.155Z,3.60
2023-03-23T20:44:08.537Z,1.48
2023-03-23T20:46:35.911Z,1.83
2023-03-23T20:49:03.388Z,1.98
2023-03-23T20:51:30.829Z,1.70
2023-03-23T20:53:58.048Z,2.15
2023-03-23T20:56:25.628Z,3.30
2023-03-23T20:58:53.558Z,3.05
2023-03-23T21:01:21.868Z,0.98
2023-03-23T21:03:52.487Z,2.05
2023-03-23T21:06:20.434Z,3.45
2023-03-23T21:08:47.705Z,5.15
2023-03-23T21:11:18.606Z,3.05
2023-03-23T21:13:46.263Z,1.60
2023-03-23T21:16:13.656Z,3.55
2023-03-23T21:18:42.110Z,2.38
2023-03-23T21:21:11.304Z,1.30
2023-03-23T21:23:39.382Z,5.18
2023-03-23T21:26:10.478Z,4.53
2023-03-23T21:28:37.905Z,4.38
2023-03-23T21:31:07.499Z,2.72
2023-03-23T21:33:34.953Z,1.65
2023-03-23T21:36:02.529Z,3.33
2023-03-23T21:38:30.131Z,2.47
2023-03-23T21:40:59.219Z,4.40
2023-03-23T21:43:27.897Z,3.67
2023-03-23T21:46:02.971Z,2.47
2023-03-23T21:48:30.437Z,2.10
2023-03-23T21:50:57.643Z,2.03
2023-03-23T21:53:25.695Z,1.65
2023-03-23T21:55:53.360Z,3.38
2023-03-23T21:58:23.100Z,2.40
2023-03-23T22:00:54.238Z,3.00
2023-03-23T22:03:25.634Z,1.70
2023-03-23T22:05:57.295Z,4.70
2023-03-23T22:08:28.987Z,4.03
2023-03-23T22:11:05.711Z,2.03
2023-03-23T22:13:34.827Z,2.60
2023-03-23T22:16:03.655Z,2.58
2023-03-23T22:18:31.167Z,1.80
2023-03-23T22:20:59.152Z,2.17
2023-03-23T22:23:27.024Z,5.00
2023-03-23T22:25:54.879Z,3.22
2023-03-23T22:28:25.621Z,3.40
2023-03-23T22:31:04.480Z,2.85
2023-03-23T22:33:33.169Z,5.13
2023-03-23T22:36:06.297Z,2.00
2023-03-23T22:38:34.961Z,4.70
2023-03-23T22:41:07.059Z,3.42
2023-03-23T22:43:36.044Z,4.25
2023-03-23T22:46:04.790Z,4.15
2023-03-23T22:48:31.912Z,5.78
2023-03-23T22:51:01.725Z,6.43
2023-03-23T22:53:28.862Z,4.03
2023-03-23T22:55:57.247Z,5.00
2023-03-23T22:58:26.137Z,4.28
2023-03-23T23:00:59.887Z,5.75
2023-03-23T23:03:27.813Z,5.30
2023-03-23T23:05:56.627Z,4.40
2023-03-23T23:08:24.962Z,7.70
2023-03-23T23:10:54.784Z,7.78
2023-03-23T23:13:23.063Z,9.95
2023-03-23T23:15:55.513Z,3.17
2023-03-23T23:18:23.419Z,5.97
2023-03-23T23:20:53.157Z,5.13
2023-03-23T23:23:20.460Z,7.65
2023-03-23T23:25:48.817Z,5.00
2023-03-23T23:28:16.219Z,6.03
2023-03-23T23:30:43.916Z,4.65
2023-03-23T23:33:11.244Z,5.38
2023-03-23T23:35:39.366Z,4.05
2023-03-23T23:38:07.561Z,8.38
2023-03-23T23:40:35.382Z,6.90
2023-03-23T23:43:03.396Z,7.05
2023-03-23T23:45:31.593Z,6.13
2023-03-23T23:47:58.830Z,5.85
2023-03-23T23:50:26.721Z,7.25
2023-03-23T23:52:54.356Z,8.98
2023-03-23T23:55:22.042Z,7.07
2023-03-23T23:57:49.483Z,7.88
